<?xml version="1.0" encoding="UTF-8" standalone="no" ?>
<gpx xmlns="http://www.topografix.com/GPX/1/1" xmlns:xsi="http://www.w3.org/2001/XMLSchema-instance" xsi:schemaLocation="http://www.topografix.com/GPX/1/1 http://www.topografix.com/GPX/1/1/gpx.xsd" version="1.1" creator="VisuGPX - https://www.visugpx.com">
  <metadata>
    <name>Les dentelles de Montmirail depuis Vacqueyras</name>
    <desc><![CDATA[Boucle au sud des Dentelles de Montmirail. Départ depuis le Hameau Les Crottes à Vacqueyras.]]></desc>
  </metadata>
  <trk>
    <name><![CDATA[20181007090844-iF2zX]]></name>
    <trkseg>
      <trkpt lat="44.13173" lon="5.00221">
        <ele>130</ele>
        <time>2018-10-07T09:08:00 02:00</time>
      </trkpt>
      <trkpt lat="44.13169" lon="5.00231">
        <ele>130</ele>
        <time>2018-10-07T09:08:05 02:00</time>
      </trkpt>
      <trkpt lat="44.1314" lon="5.00274">
        <ele>132</ele>
        <time>2018-10-07T09:08:10 02:00</time>
      </trkpt>
      <trkpt lat="44.13134" lon="5.00294">
        <ele>133</ele>
        <time>2018-10-07T09:08:15 02:00</time>
      </trkpt>
      <trkpt lat="44.13131" lon="5.00309">
        <ele>132</ele>
        <time>2018-10-07T09:08:20 02:00</time>
      </trkpt>
      <trkpt lat="44.13145" lon="5.0034">
        <ele>130</ele>
        <time>2018-10-07T09:08:25 02:00</time>
      </trkpt>
      <trkpt lat="44.13142" lon="5.00361">
        <ele>131</ele>
        <time>2018-10-07T09:08:30 02:00</time>
      </trkpt>
      <trkpt lat="44.1311" lon="5.00398">
        <ele>135</ele>
        <time>2018-10-07T09:08:35 02:00</time>
      </trkpt>
      <trkpt lat="44.13078" lon="5.00454">
        <ele>138</ele>
        <time>2018-10-07T09:08:40 02:00</time>
      </trkpt>
      <trkpt lat="44.13064" lon="5.0049">
        <ele>137</ele>
        <time>2018-10-07T09:08:45 02:00</time>
      </trkpt>
      <trkpt lat="44.13048" lon="5.00539">
        <ele>138</ele>
        <time>2018-10-07T09:08:50 02:00</time>
      </trkpt>
      <trkpt lat="44.13041" lon="5.00556">
        <ele>139</ele>
        <time>2018-10-07T09:08:55 02:00</time>
      </trkpt>
      <trkpt lat="44.1302" lon="5.00581">
        <ele>139</ele>
        <time>2018-10-07T09:09:00 02:00</time>
      </trkpt>
      <trkpt lat="44.13002" lon="5.00612">
        <ele>139</ele>
        <time>2018-10-07T09:09:05 02:00</time>
      </trkpt>
      <trkpt lat="44.12989" lon="5.0065">
        <ele>140</ele>
        <time>2018-10-07T09:09:10 02:00</time>
      </trkpt>
      <trkpt lat="44.12979" lon="5.00665">
        <ele>140</ele>
        <time>2018-10-07T09:09:15 02:00</time>
      </trkpt>
      <trkpt lat="44.1295" lon="5.00694">
        <ele>140</ele>
        <time>2018-10-07T09:09:20 02:00</time>
      </trkpt>
      <trkpt lat="44.12935" lon="5.00725">
        <ele>140</ele>
        <time>2018-10-07T09:09:25 02:00</time>
      </trkpt>
      <trkpt lat="44.12925" lon="5.00759">
        <ele>145</ele>
        <time>2018-10-07T09:09:30 02:00</time>
      </trkpt>
      <trkpt lat="44.12922" lon="5.00811">
        <ele>145</ele>
        <time>2018-10-07T09:09:35 02:00</time>
      </trkpt>
      <trkpt lat="44.12911" lon="5.00819">
        <ele>146</ele>
        <time>2018-10-07T09:09:40 02:00</time>
      </trkpt>
      <trkpt lat="44.12896" lon="5.00828">
        <ele>151</ele>
        <time>2018-10-07T09:09:45 02:00</time>
      </trkpt>
      <trkpt lat="44.12887" lon="5.00847">
        <ele>153</ele>
        <time>2018-10-07T09:09:50 02:00</time>
      </trkpt>
      <trkpt lat="44.12878" lon="5.00872">
        <ele>155</ele>
        <time>2018-10-07T09:09:55 02:00</time>
      </trkpt>
      <trkpt lat="44.12862" lon="5.00881">
        <ele>159</ele>
        <time>2018-10-07T09:10:00 02:00</time>
      </trkpt>
      <trkpt lat="44.12858" lon="5.00898">
        <ele>160</ele>
        <time>2018-10-07T09:10:05 02:00</time>
      </trkpt>
      <trkpt lat="44.12852" lon="5.0092">
        <ele>162</ele>
        <time>2018-10-07T09:10:10 02:00</time>
      </trkpt>
      <trkpt lat="44.12845" lon="5.0094">
        <ele>164</ele>
        <time>2018-10-07T09:10:15 02:00</time>
      </trkpt>
      <trkpt lat="44.12844" lon="5.00981">
        <ele>166</ele>
        <time>2018-10-07T09:10:20 02:00</time>
      </trkpt>
      <trkpt lat="44.12846" lon="5.00996">
        <ele>166</ele>
        <time>2018-10-07T09:10:25 02:00</time>
      </trkpt>
      <trkpt lat="44.12839" lon="5.01011">
        <ele>168</ele>
        <time>2018-10-07T09:10:30 02:00</time>
      </trkpt>
      <trkpt lat="44.12839" lon="5.01037">
        <ele>166</ele>
        <time>2018-10-07T09:10:35 02:00</time>
      </trkpt>
      <trkpt lat="44.12846" lon="5.01048">
        <ele>167</ele>
        <time>2018-10-07T09:10:40 02:00</time>
      </trkpt>
      <trkpt lat="44.12859" lon="5.01044">
        <ele>163</ele>
        <time>2018-10-07T09:10:45 02:00</time>
      </trkpt>
      <trkpt lat="44.12868" lon="5.01034">
        <ele>161</ele>
        <time>2018-10-07T09:10:50 02:00</time>
      </trkpt>
      <trkpt lat="44.12881" lon="5.01041">
        <ele>161</ele>
        <time>2018-10-07T09:10:55 02:00</time>
      </trkpt>
      <trkpt lat="44.12885" lon="5.01061">
        <ele>159</ele>
        <time>2018-10-07T09:11:00 02:00</time>
      </trkpt>
      <trkpt lat="44.12885" lon="5.01081">
        <ele>161</ele>
        <time>2018-10-07T09:11:05 02:00</time>
      </trkpt>
      <trkpt lat="44.12833" lon="5.0113">
        <ele>175</ele>
        <time>2018-10-07T09:11:10 02:00</time>
      </trkpt>
      <trkpt lat="44.12816" lon="5.01145">
        <ele>178</ele>
        <time>2018-10-07T09:11:15 02:00</time>
      </trkpt>
      <trkpt lat="44.12751" lon="5.01194">
        <ele>189</ele>
        <time>2018-10-07T09:11:20 02:00</time>
      </trkpt>
      <trkpt lat="44.12725" lon="5.01231">
        <ele>195</ele>
        <time>2018-10-07T09:11:25 02:00</time>
      </trkpt>
      <trkpt lat="44.12698" lon="5.01268">
        <ele>198</ele>
        <time>2018-10-07T09:11:30 02:00</time>
      </trkpt>
      <trkpt lat="44.1268" lon="5.01318">
        <ele>199</ele>
        <time>2018-10-07T09:11:35 02:00</time>
      </trkpt>
      <trkpt lat="44.12671" lon="5.01356">
        <ele>199</ele>
        <time>2018-10-07T09:11:40 02:00</time>
      </trkpt>
      <trkpt lat="44.12669" lon="5.01411">
        <ele>200</ele>
        <time>2018-10-07T09:11:45 02:00</time>
      </trkpt>
      <trkpt lat="44.12672" lon="5.01436">
        <ele>201</ele>
        <time>2018-10-07T09:11:50 02:00</time>
      </trkpt>
      <trkpt lat="44.12684" lon="5.01457">
        <ele>203</ele>
        <time>2018-10-07T09:11:55 02:00</time>
      </trkpt>
      <trkpt lat="44.12721" lon="5.01474">
        <ele>197</ele>
        <time>2018-10-07T09:12:00 02:00</time>
      </trkpt>
      <trkpt lat="44.12731" lon="5.01489">
        <ele>191</ele>
        <time>2018-10-07T09:12:05 02:00</time>
      </trkpt>
      <trkpt lat="44.12736" lon="5.01519">
        <ele>196</ele>
        <time>2018-10-07T09:12:10 02:00</time>
      </trkpt>
      <trkpt lat="44.12735" lon="5.0155">
        <ele>197</ele>
        <time>2018-10-07T09:12:15 02:00</time>
      </trkpt>
      <trkpt lat="44.12725" lon="5.01582">
        <ele>199</ele>
        <time>2018-10-07T09:12:20 02:00</time>
      </trkpt>
      <trkpt lat="44.12705" lon="5.01597">
        <ele>200</ele>
        <time>2018-10-07T09:12:25 02:00</time>
      </trkpt>
      <trkpt lat="44.12682" lon="5.01615">
        <ele>203</ele>
        <time>2018-10-07T09:12:30 02:00</time>
      </trkpt>
      <trkpt lat="44.12674" lon="5.01626">
        <ele>205</ele>
        <time>2018-10-07T09:12:35 02:00</time>
      </trkpt>
      <trkpt lat="44.12676" lon="5.01653">
        <ele>204</ele>
        <time>2018-10-07T09:12:40 02:00</time>
      </trkpt>
      <trkpt lat="44.12694" lon="5.01745">
        <ele>211</ele>
        <time>2018-10-07T09:12:45 02:00</time>
      </trkpt>
      <trkpt lat="44.12714" lon="5.01898">
        <ele>213</ele>
        <time>2018-10-07T09:12:50 02:00</time>
      </trkpt>
      <trkpt lat="44.12741" lon="5.01998">
        <ele>222</ele>
        <time>2018-10-07T09:12:55 02:00</time>
      </trkpt>
      <trkpt lat="44.12751" lon="5.02029">
        <ele>222</ele>
        <time>2018-10-07T09:13:00 02:00</time>
      </trkpt>
      <trkpt lat="44.12766" lon="5.02055">
        <ele>224</ele>
        <time>2018-10-07T09:13:05 02:00</time>
      </trkpt>
      <trkpt lat="44.12779" lon="5.02068">
        <ele>224</ele>
        <time>2018-10-07T09:13:10 02:00</time>
      </trkpt>
      <trkpt lat="44.12784" lon="5.02082">
        <ele>220</ele>
        <time>2018-10-07T09:13:15 02:00</time>
      </trkpt>
      <trkpt lat="44.12788" lon="5.02113">
        <ele>224</ele>
        <time>2018-10-07T09:13:20 02:00</time>
      </trkpt>
      <trkpt lat="44.12804" lon="5.0216">
        <ele>228</ele>
        <time>2018-10-07T09:13:25 02:00</time>
      </trkpt>
      <trkpt lat="44.12805" lon="5.02241">
        <ele>239</ele>
        <time>2018-10-07T09:13:30 02:00</time>
      </trkpt>
      <trkpt lat="44.12806" lon="5.02304">
        <ele>243</ele>
        <time>2018-10-07T09:13:35 02:00</time>
      </trkpt>
      <trkpt lat="44.12807" lon="5.02343">
        <ele>248</ele>
        <time>2018-10-07T09:13:40 02:00</time>
      </trkpt>
      <trkpt lat="44.12799" lon="5.02439">
        <ele>251</ele>
        <time>2018-10-07T09:13:45 02:00</time>
      </trkpt>
      <trkpt lat="44.12792" lon="5.0253">
        <ele>260</ele>
        <time>2018-10-07T09:13:50 02:00</time>
      </trkpt>
      <trkpt lat="44.12914" lon="5.02548">
        <ele>260</ele>
        <time>2018-10-07T09:13:55 02:00</time>
      </trkpt>
      <trkpt lat="44.12927" lon="5.02545">
        <ele>262</ele>
        <time>2018-10-07T09:14:00 02:00</time>
      </trkpt>
      <trkpt lat="44.12933" lon="5.02561">
        <ele>263</ele>
        <time>2018-10-07T09:14:05 02:00</time>
      </trkpt>
      <trkpt lat="44.12932" lon="5.02585">
        <ele>264</ele>
        <time>2018-10-07T09:14:10 02:00</time>
      </trkpt>
      <trkpt lat="44.12929" lon="5.02613">
        <ele>262</ele>
        <time>2018-10-07T09:14:15 02:00</time>
      </trkpt>
      <trkpt lat="44.12934" lon="5.02653">
        <ele>262</ele>
        <time>2018-10-07T09:14:20 02:00</time>
      </trkpt>
      <trkpt lat="44.12942" lon="5.02693">
        <ele>259</ele>
        <time>2018-10-07T09:14:25 02:00</time>
      </trkpt>
      <trkpt lat="44.12959" lon="5.02698">
        <ele>261</ele>
        <time>2018-10-07T09:14:30 02:00</time>
      </trkpt>
      <trkpt lat="44.13002" lon="5.02696">
        <ele>267</ele>
        <time>2018-10-07T09:14:35 02:00</time>
      </trkpt>
      <trkpt lat="44.13018" lon="5.02703">
        <ele>268</ele>
        <time>2018-10-07T09:14:40 02:00</time>
      </trkpt>
      <trkpt lat="44.13041" lon="5.02731">
        <ele>268</ele>
        <time>2018-10-07T09:14:45 02:00</time>
      </trkpt>
      <trkpt lat="44.1307" lon="5.02718">
        <ele>271</ele>
        <time>2018-10-07T09:14:50 02:00</time>
      </trkpt>
      <trkpt lat="44.13103" lon="5.02687">
        <ele>265</ele>
        <time>2018-10-07T09:14:55 02:00</time>
      </trkpt>
      <trkpt lat="44.13126" lon="5.02667">
        <ele>267</ele>
        <time>2018-10-07T09:15:00 02:00</time>
      </trkpt>
      <trkpt lat="44.13192" lon="5.02603">
        <ele>257</ele>
        <time>2018-10-07T09:15:05 02:00</time>
      </trkpt>
      <trkpt lat="44.13226" lon="5.02572">
        <ele>257</ele>
        <time>2018-10-07T09:15:10 02:00</time>
      </trkpt>
      <trkpt lat="44.1326" lon="5.02546">
        <ele>262</ele>
        <time>2018-10-07T09:15:15 02:00</time>
      </trkpt>
      <trkpt lat="44.13278" lon="5.02541">
        <ele>261</ele>
        <time>2018-10-07T09:15:20 02:00</time>
      </trkpt>
      <trkpt lat="44.13293" lon="5.02543">
        <ele>256</ele>
        <time>2018-10-07T09:15:25 02:00</time>
      </trkpt>
      <trkpt lat="44.13313" lon="5.0254">
        <ele>254</ele>
        <time>2018-10-07T09:15:30 02:00</time>
      </trkpt>
      <trkpt lat="44.13323" lon="5.02531">
        <ele>254</ele>
        <time>2018-10-07T09:15:35 02:00</time>
      </trkpt>
      <trkpt lat="44.13339" lon="5.02499">
        <ele>256</ele>
        <time>2018-10-07T09:15:40 02:00</time>
      </trkpt>
      <trkpt lat="44.13351" lon="5.02484">
        <ele>256</ele>
        <time>2018-10-07T09:15:45 02:00</time>
      </trkpt>
      <trkpt lat="44.13413" lon="5.02447">
        <ele>256</ele>
        <time>2018-10-07T09:15:50 02:00</time>
      </trkpt>
      <trkpt lat="44.13426" lon="5.02425">
        <ele>258</ele>
        <time>2018-10-07T09:15:55 02:00</time>
      </trkpt>
      <trkpt lat="44.13438" lon="5.02425">
        <ele>258</ele>
        <time>2018-10-07T09:16:00 02:00</time>
      </trkpt>
      <trkpt lat="44.13453" lon="5.02426">
        <ele>258</ele>
        <time>2018-10-07T09:16:05 02:00</time>
      </trkpt>
      <trkpt lat="44.13479" lon="5.02407">
        <ele>260</ele>
        <time>2018-10-07T09:16:10 02:00</time>
      </trkpt>
      <trkpt lat="44.1355" lon="5.02372">
        <ele>266</ele>
        <time>2018-10-07T09:16:15 02:00</time>
      </trkpt>
      <trkpt lat="44.1357" lon="5.02351">
        <ele>269</ele>
        <time>2018-10-07T09:16:20 02:00</time>
      </trkpt>
      <trkpt lat="44.13606" lon="5.02304">
        <ele>273</ele>
        <time>2018-10-07T09:16:25 02:00</time>
      </trkpt>
      <trkpt lat="44.13668" lon="5.02261">
        <ele>275</ele>
        <time>2018-10-07T09:16:30 02:00</time>
      </trkpt>
      <trkpt lat="44.13714" lon="5.02228">
        <ele>277</ele>
        <time>2018-10-07T09:16:35 02:00</time>
      </trkpt>
      <trkpt lat="44.13797" lon="5.02199">
        <ele>286</ele>
        <time>2018-10-07T09:16:40 02:00</time>
      </trkpt>
      <trkpt lat="44.13877" lon="5.02173">
        <ele>296</ele>
        <time>2018-10-07T09:16:45 02:00</time>
      </trkpt>
      <trkpt lat="44.13887" lon="5.02127">
        <ele>295</ele>
        <time>2018-10-07T09:16:50 02:00</time>
      </trkpt>
      <trkpt lat="44.13896" lon="5.02098">
        <ele>294</ele>
        <time>2018-10-07T09:16:55 02:00</time>
      </trkpt>
      <trkpt lat="44.13921" lon="5.02056">
        <ele>293</ele>
        <time>2018-10-07T09:17:00 02:00</time>
      </trkpt>
      <trkpt lat="44.13945" lon="5.02037">
        <ele>293</ele>
        <time>2018-10-07T09:17:05 02:00</time>
      </trkpt>
      <trkpt lat="44.13963" lon="5.02045">
        <ele>295</ele>
        <time>2018-10-07T09:17:10 02:00</time>
      </trkpt>
      <trkpt lat="44.1399" lon="5.02073">
        <ele>299</ele>
        <time>2018-10-07T09:17:15 02:00</time>
      </trkpt>
      <trkpt lat="44.14012" lon="5.02076">
        <ele>301</ele>
        <time>2018-10-07T09:17:20 02:00</time>
      </trkpt>
      <trkpt lat="44.14027" lon="5.0207">
        <ele>303</ele>
        <time>2018-10-07T09:17:25 02:00</time>
      </trkpt>
      <trkpt lat="44.14036" lon="5.02047">
        <ele>304</ele>
        <time>2018-10-07T09:17:30 02:00</time>
      </trkpt>
      <trkpt lat="44.14034" lon="5.02032">
        <ele>299</ele>
        <time>2018-10-07T09:17:35 02:00</time>
      </trkpt>
      <trkpt lat="44.14017" lon="5.02024">
        <ele>301</ele>
        <time>2018-10-07T09:17:40 02:00</time>
      </trkpt>
      <trkpt lat="44.14006" lon="5.02023">
        <ele>299</ele>
        <time>2018-10-07T09:17:45 02:00</time>
      </trkpt>
      <trkpt lat="44.13997" lon="5.02016">
        <ele>298</ele>
        <time>2018-10-07T09:17:50 02:00</time>
      </trkpt>
      <trkpt lat="44.13979" lon="5.01994">
        <ele>296</ele>
        <time>2018-10-07T09:17:55 02:00</time>
      </trkpt>
      <trkpt lat="44.13951" lon="5.01952">
        <ele>295</ele>
        <time>2018-10-07T09:18:00 02:00</time>
      </trkpt>
      <trkpt lat="44.13918" lon="5.01944">
        <ele>284</ele>
        <time>2018-10-07T09:18:05 02:00</time>
      </trkpt>
      <trkpt lat="44.13881" lon="5.01938">
        <ele>290</ele>
        <time>2018-10-07T09:18:10 02:00</time>
      </trkpt>
      <trkpt lat="44.13937" lon="5.01928">
        <ele>296</ele>
        <time>2018-10-07T09:18:15 02:00</time>
      </trkpt>
      <trkpt lat="44.13966" lon="5.01931">
        <ele>294</ele>
        <time>2018-10-07T09:18:20 02:00</time>
      </trkpt>
      <trkpt lat="44.13997" lon="5.0195">
        <ele>299</ele>
        <time>2018-10-07T09:18:25 02:00</time>
      </trkpt>
      <trkpt lat="44.14027" lon="5.01972">
        <ele>304</ele>
        <time>2018-10-07T09:18:30 02:00</time>
      </trkpt>
      <trkpt lat="44.14077" lon="5.01984">
        <ele>310</ele>
        <time>2018-10-07T09:18:35 02:00</time>
      </trkpt>
      <trkpt lat="44.14102" lon="5.01999">
        <ele>314</ele>
        <time>2018-10-07T09:18:40 02:00</time>
      </trkpt>
      <trkpt lat="44.14131" lon="5.01997">
        <ele>318</ele>
        <time>2018-10-07T09:18:45 02:00</time>
      </trkpt>
      <trkpt lat="44.14144" lon="5.01994">
        <ele>320</ele>
        <time>2018-10-07T09:18:50 02:00</time>
      </trkpt>
      <trkpt lat="44.14161" lon="5.01996">
        <ele>321</ele>
        <time>2018-10-07T09:18:55 02:00</time>
      </trkpt>
      <trkpt lat="44.14193" lon="5.02012">
        <ele>326</ele>
        <time>2018-10-07T09:19:00 02:00</time>
      </trkpt>
      <trkpt lat="44.14201" lon="5.02025">
        <ele>321</ele>
        <time>2018-10-07T09:19:05 02:00</time>
      </trkpt>
      <trkpt lat="44.14235" lon="5.02086">
        <ele>327</ele>
        <time>2018-10-07T09:19:10 02:00</time>
      </trkpt>
      <trkpt lat="44.14264" lon="5.02126">
        <ele>331</ele>
        <time>2018-10-07T09:19:15 02:00</time>
      </trkpt>
      <trkpt lat="44.14312" lon="5.02174">
        <ele>338</ele>
        <time>2018-10-07T09:19:20 02:00</time>
      </trkpt>
      <trkpt lat="44.14323" lon="5.02186">
        <ele>344</ele>
        <time>2018-10-07T09:19:25 02:00</time>
      </trkpt>
      <trkpt lat="44.14355" lon="5.02218">
        <ele>345</ele>
        <time>2018-10-07T09:19:30 02:00</time>
      </trkpt>
      <trkpt lat="44.14361" lon="5.02232">
        <ele>346</ele>
        <time>2018-10-07T09:19:35 02:00</time>
      </trkpt>
      <trkpt lat="44.14361" lon="5.02245">
        <ele>347</ele>
        <time>2018-10-07T09:19:40 02:00</time>
      </trkpt>
      <trkpt lat="44.14354" lon="5.02274">
        <ele>347</ele>
        <time>2018-10-07T09:19:45 02:00</time>
      </trkpt>
      <trkpt lat="44.14353" lon="5.02283">
        <ele>348</ele>
        <time>2018-10-07T09:19:50 02:00</time>
      </trkpt>
      <trkpt lat="44.1436" lon="5.0229">
        <ele>349</ele>
        <time>2018-10-07T09:19:55 02:00</time>
      </trkpt>
      <trkpt lat="44.14382" lon="5.02293">
        <ele>350</ele>
        <time>2018-10-07T09:20:00 02:00</time>
      </trkpt>
      <trkpt lat="44.14416" lon="5.02283">
        <ele>354</ele>
        <time>2018-10-07T09:20:05 02:00</time>
      </trkpt>
      <trkpt lat="44.14458" lon="5.02267">
        <ele>360</ele>
        <time>2018-10-07T09:20:10 02:00</time>
      </trkpt>
      <trkpt lat="44.14473" lon="5.02268">
        <ele>362</ele>
        <time>2018-10-07T09:20:15 02:00</time>
      </trkpt>
      <trkpt lat="44.14488" lon="5.02282">
        <ele>365</ele>
        <time>2018-10-07T09:20:20 02:00</time>
      </trkpt>
      <trkpt lat="44.14502" lon="5.02313">
        <ele>367</ele>
        <time>2018-10-07T09:20:25 02:00</time>
      </trkpt>
      <trkpt lat="44.1451" lon="5.02323">
        <ele>371</ele>
        <time>2018-10-07T09:20:30 02:00</time>
      </trkpt>
      <trkpt lat="44.1452" lon="5.02315">
        <ele>373</ele>
        <time>2018-10-07T09:20:35 02:00</time>
      </trkpt>
      <trkpt lat="44.14523" lon="5.02297">
        <ele>374</ele>
        <time>2018-10-07T09:20:40 02:00</time>
      </trkpt>
      <trkpt lat="44.1452" lon="5.02218">
        <ele>373</ele>
        <time>2018-10-07T09:20:45 02:00</time>
      </trkpt>
      <trkpt lat="44.14525" lon="5.02189">
        <ele>373</ele>
        <time>2018-10-07T09:20:50 02:00</time>
      </trkpt>
      <trkpt lat="44.14541" lon="5.02149">
        <ele>374</ele>
        <time>2018-10-07T09:20:55 02:00</time>
      </trkpt>
      <trkpt lat="44.14554" lon="5.02142">
        <ele>375</ele>
        <time>2018-10-07T09:21:00 02:00</time>
      </trkpt>
      <trkpt lat="44.14585" lon="5.02144">
        <ele>386</ele>
        <time>2018-10-07T09:21:05 02:00</time>
      </trkpt>
      <trkpt lat="44.14604" lon="5.02134">
        <ele>385</ele>
        <time>2018-10-07T09:21:10 02:00</time>
      </trkpt>
      <trkpt lat="44.14616" lon="5.02113">
        <ele>387</ele>
        <time>2018-10-07T09:21:15 02:00</time>
      </trkpt>
      <trkpt lat="44.14618" lon="5.02095">
        <ele>386</ele>
        <time>2018-10-07T09:21:20 02:00</time>
      </trkpt>
      <trkpt lat="44.14614" lon="5.02075">
        <ele>383</ele>
        <time>2018-10-07T09:21:25 02:00</time>
      </trkpt>
      <trkpt lat="44.14605" lon="5.0205">
        <ele>379</ele>
        <time>2018-10-07T09:21:30 02:00</time>
      </trkpt>
      <trkpt lat="44.14601" lon="5.02017">
        <ele>376</ele>
        <time>2018-10-07T09:21:35 02:00</time>
      </trkpt>
      <trkpt lat="44.14596" lon="5.01932">
        <ele>379</ele>
        <time>2018-10-07T09:21:40 02:00</time>
      </trkpt>
      <trkpt lat="44.1459" lon="5.0191">
        <ele>379</ele>
        <time>2018-10-07T09:21:45 02:00</time>
      </trkpt>
      <trkpt lat="44.14579" lon="5.01893">
        <ele>372</ele>
        <time>2018-10-07T09:21:50 02:00</time>
      </trkpt>
      <trkpt lat="44.1457" lon="5.01875">
        <ele>368</ele>
        <time>2018-10-07T09:21:55 02:00</time>
      </trkpt>
      <trkpt lat="44.14571" lon="5.01857">
        <ele>367</ele>
        <time>2018-10-07T09:22:00 02:00</time>
      </trkpt>
      <trkpt lat="44.14585" lon="5.01847">
        <ele>370</ele>
        <time>2018-10-07T09:22:05 02:00</time>
      </trkpt>
      <trkpt lat="44.14624" lon="5.01833">
        <ele>377</ele>
        <time>2018-10-07T09:22:10 02:00</time>
      </trkpt>
      <trkpt lat="44.14671" lon="5.01807">
        <ele>382</ele>
        <time>2018-10-07T09:22:15 02:00</time>
      </trkpt>
      <trkpt lat="44.14687" lon="5.01783">
        <ele>385</ele>
        <time>2018-10-07T09:22:20 02:00</time>
      </trkpt>
      <trkpt lat="44.1469" lon="5.01763">
        <ele>383</ele>
        <time>2018-10-07T09:22:25 02:00</time>
      </trkpt>
      <trkpt lat="44.14692" lon="5.01702">
        <ele>380</ele>
        <time>2018-10-07T09:22:30 02:00</time>
      </trkpt>
      <trkpt lat="44.14695" lon="5.01666">
        <ele>379</ele>
        <time>2018-10-07T09:22:35 02:00</time>
      </trkpt>
      <trkpt lat="44.14723" lon="5.01562">
        <ele>381</ele>
        <time>2018-10-07T09:22:40 02:00</time>
      </trkpt>
      <trkpt lat="44.14737" lon="5.0155">
        <ele>382</ele>
        <time>2018-10-07T09:22:45 02:00</time>
      </trkpt>
      <trkpt lat="44.14825" lon="5.01536">
        <ele>383</ele>
        <time>2018-10-07T09:22:50 02:00</time>
      </trkpt>
      <trkpt lat="44.14857" lon="5.01546">
        <ele>384</ele>
        <time>2018-10-07T09:22:55 02:00</time>
      </trkpt>
      <trkpt lat="44.14876" lon="5.01566">
        <ele>387</ele>
        <time>2018-10-07T09:23:00 02:00</time>
      </trkpt>
      <trkpt lat="44.14887" lon="5.01584">
        <ele>390</ele>
        <time>2018-10-07T09:23:05 02:00</time>
      </trkpt>
      <trkpt lat="44.14899" lon="5.01624">
        <ele>398</ele>
        <time>2018-10-07T09:23:10 02:00</time>
      </trkpt>
      <trkpt lat="44.14919" lon="5.01636">
        <ele>400</ele>
        <time>2018-10-07T09:23:15 02:00</time>
      </trkpt>
      <trkpt lat="44.14962" lon="5.01646">
        <ele>399</ele>
        <time>2018-10-07T09:23:20 02:00</time>
      </trkpt>
      <trkpt lat="44.14985" lon="5.01663">
        <ele>404</ele>
        <time>2018-10-07T09:23:25 02:00</time>
      </trkpt>
      <trkpt lat="44.15028" lon="5.01704">
        <ele>413</ele>
        <time>2018-10-07T09:23:30 02:00</time>
      </trkpt>
      <trkpt lat="44.1506" lon="5.01737">
        <ele>419</ele>
        <time>2018-10-07T09:23:35 02:00</time>
      </trkpt>
      <trkpt lat="44.15107" lon="5.01786">
        <ele>425</ele>
        <time>2018-10-07T09:23:40 02:00</time>
      </trkpt>
      <trkpt lat="44.15133" lon="5.01811">
        <ele>428</ele>
        <time>2018-10-07T09:23:45 02:00</time>
      </trkpt>
      <trkpt lat="44.15155" lon="5.01854">
        <ele>435</ele>
        <time>2018-10-07T09:23:50 02:00</time>
      </trkpt>
      <trkpt lat="44.15184" lon="5.01906">
        <ele>444</ele>
        <time>2018-10-07T09:23:55 02:00</time>
      </trkpt>
      <trkpt lat="44.15196" lon="5.01933">
        <ele>449</ele>
        <time>2018-10-07T09:24:00 02:00</time>
      </trkpt>
      <trkpt lat="44.15205" lon="5.01971">
        <ele>455</ele>
        <time>2018-10-07T09:24:05 02:00</time>
      </trkpt>
      <trkpt lat="44.15214" lon="5.01987">
        <ele>456</ele>
        <time>2018-10-07T09:24:10 02:00</time>
      </trkpt>
      <trkpt lat="44.15233" lon="5.01992">
        <ele>454</ele>
        <time>2018-10-07T09:24:15 02:00</time>
      </trkpt>
      <trkpt lat="44.15246" lon="5.01991">
        <ele>451</ele>
        <time>2018-10-07T09:24:20 02:00</time>
      </trkpt>
      <trkpt lat="44.15261" lon="5.01994">
        <ele>442</ele>
        <time>2018-10-07T09:24:25 02:00</time>
      </trkpt>
      <trkpt lat="44.15279" lon="5.01979">
        <ele>444</ele>
        <time>2018-10-07T09:24:30 02:00</time>
      </trkpt>
      <trkpt lat="44.15298" lon="5.01942">
        <ele>460</ele>
        <time>2018-10-07T09:24:35 02:00</time>
      </trkpt>
      <trkpt lat="44.15305" lon="5.01905">
        <ele>460</ele>
        <time>2018-10-07T09:24:40 02:00</time>
      </trkpt>
      <trkpt lat="44.15307" lon="5.01863">
        <ele>449</ele>
        <time>2018-10-07T09:24:45 02:00</time>
      </trkpt>
      <trkpt lat="44.15301" lon="5.01835">
        <ele>456</ele>
        <time>2018-10-07T09:24:50 02:00</time>
      </trkpt>
      <trkpt lat="44.15291" lon="5.01789">
        <ele>452</ele>
        <time>2018-10-07T09:24:55 02:00</time>
      </trkpt>
      <trkpt lat="44.15286" lon="5.01746">
        <ele>451</ele>
        <time>2018-10-07T09:25:00 02:00</time>
      </trkpt>
      <trkpt lat="44.15283" lon="5.01719">
        <ele>451</ele>
        <time>2018-10-07T09:25:05 02:00</time>
      </trkpt>
      <trkpt lat="44.15261" lon="5.01635">
        <ele>445</ele>
        <time>2018-10-07T09:25:10 02:00</time>
      </trkpt>
      <trkpt lat="44.15245" lon="5.01558">
        <ele>444</ele>
        <time>2018-10-07T09:25:15 02:00</time>
      </trkpt>
      <trkpt lat="44.15225" lon="5.0148">
        <ele>442</ele>
        <time>2018-10-07T09:25:20 02:00</time>
      </trkpt>
      <trkpt lat="44.15216" lon="5.01434">
        <ele>442</ele>
        <time>2018-10-07T09:25:25 02:00</time>
      </trkpt>
      <trkpt lat="44.1521" lon="5.01382">
        <ele>439</ele>
        <time>2018-10-07T09:25:30 02:00</time>
      </trkpt>
      <trkpt lat="44.15208" lon="5.0136">
        <ele>437</ele>
        <time>2018-10-07T09:25:35 02:00</time>
      </trkpt>
      <trkpt lat="44.1521" lon="5.01315">
        <ele>435</ele>
        <time>2018-10-07T09:25:40 02:00</time>
      </trkpt>
      <trkpt lat="44.15212" lon="5.0127">
        <ele>429</ele>
        <time>2018-10-07T09:25:45 02:00</time>
      </trkpt>
      <trkpt lat="44.15222" lon="5.01243">
        <ele>429</ele>
        <time>2018-10-07T09:25:50 02:00</time>
      </trkpt>
      <trkpt lat="44.15244" lon="5.01201">
        <ele>427</ele>
        <time>2018-10-07T09:25:55 02:00</time>
      </trkpt>
      <trkpt lat="44.15273" lon="5.01168">
        <ele>421</ele>
        <time>2018-10-07T09:26:00 02:00</time>
      </trkpt>
      <trkpt lat="44.15304" lon="5.0114">
        <ele>422</ele>
        <time>2018-10-07T09:26:05 02:00</time>
      </trkpt>
      <trkpt lat="44.15345" lon="5.01134">
        <ele>415</ele>
        <time>2018-10-07T09:26:10 02:00</time>
      </trkpt>
      <trkpt lat="44.15388" lon="5.01129">
        <ele>417</ele>
        <time>2018-10-07T09:26:15 02:00</time>
      </trkpt>
      <trkpt lat="44.1541" lon="5.01121">
        <ele>414</ele>
        <time>2018-10-07T09:26:20 02:00</time>
      </trkpt>
      <trkpt lat="44.15445" lon="5.011">
        <ele>408</ele>
        <time>2018-10-07T09:26:25 02:00</time>
      </trkpt>
      <trkpt lat="44.15458" lon="5.01082">
        <ele>405</ele>
        <time>2018-10-07T09:26:30 02:00</time>
      </trkpt>
      <trkpt lat="44.15467" lon="5.01066">
        <ele>405</ele>
        <time>2018-10-07T09:26:35 02:00</time>
      </trkpt>
      <trkpt lat="44.1549" lon="5.01058">
        <ele>406</ele>
        <time>2018-10-07T09:26:40 02:00</time>
      </trkpt>
      <trkpt lat="44.15512" lon="5.0104">
        <ele>407</ele>
        <time>2018-10-07T09:26:45 02:00</time>
      </trkpt>
      <trkpt lat="44.15547" lon="5.01026">
        <ele>412</ele>
        <time>2018-10-07T09:26:50 02:00</time>
      </trkpt>
      <trkpt lat="44.15588" lon="5.01018">
        <ele>419</ele>
        <time>2018-10-07T09:26:55 02:00</time>
      </trkpt>
      <trkpt lat="44.15594" lon="5.01011">
        <ele>418</ele>
        <time>2018-10-07T09:27:00 02:00</time>
      </trkpt>
      <trkpt lat="44.15638" lon="5.01005">
        <ele>412</ele>
        <time>2018-10-07T09:27:05 02:00</time>
      </trkpt>
      <trkpt lat="44.15668" lon="5.01025">
        <ele>414</ele>
        <time>2018-10-07T09:27:10 02:00</time>
      </trkpt>
      <trkpt lat="44.15679" lon="5.01023">
        <ele>415</ele>
        <time>2018-10-07T09:27:15 02:00</time>
      </trkpt>
      <trkpt lat="44.15694" lon="5.01013">
        <ele>399</ele>
        <time>2018-10-07T09:27:20 02:00</time>
      </trkpt>
      <trkpt lat="44.15706" lon="5.00982">
        <ele>394</ele>
        <time>2018-10-07T09:27:25 02:00</time>
      </trkpt>
      <trkpt lat="44.1572" lon="5.00957">
        <ele>391</ele>
        <time>2018-10-07T09:27:30 02:00</time>
      </trkpt>
      <trkpt lat="44.15732" lon="5.00946">
        <ele>397</ele>
        <time>2018-10-07T09:27:35 02:00</time>
      </trkpt>
      <trkpt lat="44.15758" lon="5.00922">
        <ele>389</ele>
        <time>2018-10-07T09:27:40 02:00</time>
      </trkpt>
      <trkpt lat="44.15781" lon="5.00891">
        <ele>381</ele>
        <time>2018-10-07T09:27:45 02:00</time>
      </trkpt>
      <trkpt lat="44.15792" lon="5.00875">
        <ele>377</ele>
        <time>2018-10-07T09:27:50 02:00</time>
      </trkpt>
      <trkpt lat="44.15811" lon="5.00871">
        <ele>377</ele>
        <time>2018-10-07T09:27:55 02:00</time>
      </trkpt>
      <trkpt lat="44.15848" lon="5.00873">
        <ele>376</ele>
        <time>2018-10-07T09:28:00 02:00</time>
      </trkpt>
      <trkpt lat="44.15873" lon="5.00878">
        <ele>372</ele>
        <time>2018-10-07T09:28:05 02:00</time>
      </trkpt>
      <trkpt lat="44.15888" lon="5.00864">
        <ele>366</ele>
        <time>2018-10-07T09:28:10 02:00</time>
      </trkpt>
      <trkpt lat="44.15903" lon="5.00865">
        <ele>370</ele>
        <time>2018-10-07T09:28:15 02:00</time>
      </trkpt>
      <trkpt lat="44.15921" lon="5.00885">
        <ele>364</ele>
        <time>2018-10-07T09:28:20 02:00</time>
      </trkpt>
      <trkpt lat="44.15934" lon="5.00914">
        <ele>366</ele>
        <time>2018-10-07T09:28:25 02:00</time>
      </trkpt>
      <trkpt lat="44.15941" lon="5.00933">
        <ele>368</ele>
        <time>2018-10-07T09:28:30 02:00</time>
      </trkpt>
      <trkpt lat="44.15947" lon="5.00928">
        <ele>364</ele>
        <time>2018-10-07T09:28:35 02:00</time>
      </trkpt>
      <trkpt lat="44.15942" lon="5.00908">
        <ele>362</ele>
        <time>2018-10-07T09:28:40 02:00</time>
      </trkpt>
      <trkpt lat="44.15927" lon="5.00868">
        <ele>359</ele>
        <time>2018-10-07T09:28:45 02:00</time>
      </trkpt>
      <trkpt lat="44.15922" lon="5.00838">
        <ele>353</ele>
        <time>2018-10-07T09:28:50 02:00</time>
      </trkpt>
      <trkpt lat="44.15921" lon="5.00816">
        <ele>350</ele>
        <time>2018-10-07T09:28:55 02:00</time>
      </trkpt>
      <trkpt lat="44.15931" lon="5.00779">
        <ele>341</ele>
        <time>2018-10-07T09:29:00 02:00</time>
      </trkpt>
      <trkpt lat="44.15936" lon="5.00695">
        <ele>328</ele>
        <time>2018-10-07T09:29:05 02:00</time>
      </trkpt>
      <trkpt lat="44.15946" lon="5.00659">
        <ele>321</ele>
        <time>2018-10-07T09:29:10 02:00</time>
      </trkpt>
      <trkpt lat="44.15947" lon="5.0064">
        <ele>319</ele>
        <time>2018-10-07T09:29:15 02:00</time>
      </trkpt>
      <trkpt lat="44.15942" lon="5.00618">
        <ele>318</ele>
        <time>2018-10-07T09:29:20 02:00</time>
      </trkpt>
      <trkpt lat="44.15945" lon="5.00551">
        <ele>310</ele>
        <time>2018-10-07T09:29:25 02:00</time>
      </trkpt>
      <trkpt lat="44.15938" lon="5.00482">
        <ele>311</ele>
        <time>2018-10-07T09:29:30 02:00</time>
      </trkpt>
      <trkpt lat="44.15937" lon="5.0046">
        <ele>303</ele>
        <time>2018-10-07T09:29:35 02:00</time>
      </trkpt>
      <trkpt lat="44.15957" lon="5.00423">
        <ele>297</ele>
        <time>2018-10-07T09:29:40 02:00</time>
      </trkpt>
      <trkpt lat="44.1597" lon="5.00405">
        <ele>294</ele>
        <time>2018-10-07T09:29:45 02:00</time>
      </trkpt>
      <trkpt lat="44.15987" lon="5.00365">
        <ele>291</ele>
        <time>2018-10-07T09:29:50 02:00</time>
      </trkpt>
      <trkpt lat="44.16" lon="5.0035">
        <ele>289</ele>
        <time>2018-10-07T09:29:55 02:00</time>
      </trkpt>
      <trkpt lat="44.1602" lon="5.0033">
        <ele>288</ele>
        <time>2018-10-07T09:30:00 02:00</time>
      </trkpt>
      <trkpt lat="44.16029" lon="5.00311">
        <ele>288</ele>
        <time>2018-10-07T09:30:05 02:00</time>
      </trkpt>
      <trkpt lat="44.16021" lon="5.00287">
        <ele>288</ele>
        <time>2018-10-07T09:30:10 02:00</time>
      </trkpt>
      <trkpt lat="44.16002" lon="5.00249">
        <ele>287</ele>
        <time>2018-10-07T09:30:15 02:00</time>
      </trkpt>
      <trkpt lat="44.15993" lon="5.00236">
        <ele>286</ele>
        <time>2018-10-07T09:30:20 02:00</time>
      </trkpt>
      <trkpt lat="44.15983" lon="5.00235">
        <ele>285</ele>
        <time>2018-10-07T09:30:25 02:00</time>
      </trkpt>
      <trkpt lat="44.15948" lon="5.00236">
        <ele>283</ele>
        <time>2018-10-07T09:30:30 02:00</time>
      </trkpt>
      <trkpt lat="44.15937" lon="5.00236">
        <ele>282</ele>
        <time>2018-10-07T09:30:35 02:00</time>
      </trkpt>
      <trkpt lat="44.1592" lon="5.00233">
        <ele>281</ele>
        <time>2018-10-07T09:30:40 02:00</time>
      </trkpt>
      <trkpt lat="44.15901" lon="5.00222">
        <ele>278</ele>
        <time>2018-10-07T09:30:45 02:00</time>
      </trkpt>
      <trkpt lat="44.15883" lon="5.00216">
        <ele>279</ele>
        <time>2018-10-07T09:30:50 02:00</time>
      </trkpt>
      <trkpt lat="44.1587" lon="5.00218">
        <ele>278</ele>
        <time>2018-10-07T09:30:55 02:00</time>
      </trkpt>
      <trkpt lat="44.15856" lon="5.00225">
        <ele>277</ele>
        <time>2018-10-07T09:31:00 02:00</time>
      </trkpt>
      <trkpt lat="44.15841" lon="5.00233">
        <ele>275</ele>
        <time>2018-10-07T09:31:05 02:00</time>
      </trkpt>
      <trkpt lat="44.15835" lon="5.00246">
        <ele>275</ele>
        <time>2018-10-07T09:31:10 02:00</time>
      </trkpt>
      <trkpt lat="44.15833" lon="5.00265">
        <ele>276</ele>
        <time>2018-10-07T09:31:15 02:00</time>
      </trkpt>
      <trkpt lat="44.1583" lon="5.00283">
        <ele>277</ele>
        <time>2018-10-07T09:31:20 02:00</time>
      </trkpt>
      <trkpt lat="44.15819" lon="5.00277">
        <ele>275</ele>
        <time>2018-10-07T09:31:25 02:00</time>
      </trkpt>
      <trkpt lat="44.15812" lon="5.00264">
        <ele>279</ele>
        <time>2018-10-07T09:31:30 02:00</time>
      </trkpt>
      <trkpt lat="44.15801" lon="5.00252">
        <ele>279</ele>
        <time>2018-10-07T09:31:35 02:00</time>
      </trkpt>
      <trkpt lat="44.15762" lon="5.00228">
        <ele>279</ele>
        <time>2018-10-07T09:31:40 02:00</time>
      </trkpt>
      <trkpt lat="44.15743" lon="5.00208">
        <ele>276</ele>
        <time>2018-10-07T09:31:45 02:00</time>
      </trkpt>
      <trkpt lat="44.15658" lon="5.0022">
        <ele>287</ele>
        <time>2018-10-07T09:31:50 02:00</time>
      </trkpt>
      <trkpt lat="44.15629" lon="5.00214">
        <ele>284</ele>
        <time>2018-10-07T09:31:55 02:00</time>
      </trkpt>
      <trkpt lat="44.15618" lon="5.00216">
        <ele>285</ele>
        <time>2018-10-07T09:32:00 02:00</time>
      </trkpt>
      <trkpt lat="44.15604" lon="5.00227">
        <ele>286</ele>
        <time>2018-10-07T09:32:05 02:00</time>
      </trkpt>
      <trkpt lat="44.15593" lon="5.00248">
        <ele>286</ele>
        <time>2018-10-07T09:32:10 02:00</time>
      </trkpt>
      <trkpt lat="44.15576" lon="5.00332">
        <ele>290</ele>
        <time>2018-10-07T09:32:15 02:00</time>
      </trkpt>
      <trkpt lat="44.15565" lon="5.00356">
        <ele>285</ele>
        <time>2018-10-07T09:32:20 02:00</time>
      </trkpt>
      <trkpt lat="44.15547" lon="5.00366">
        <ele>289</ele>
        <time>2018-10-07T09:32:25 02:00</time>
      </trkpt>
      <trkpt lat="44.15515" lon="5.00363">
        <ele>281</ele>
        <time>2018-10-07T09:32:30 02:00</time>
      </trkpt>
      <trkpt lat="44.15496" lon="5.00371">
        <ele>280</ele>
        <time>2018-10-07T09:32:35 02:00</time>
      </trkpt>
      <trkpt lat="44.15478" lon="5.00404">
        <ele>282</ele>
        <time>2018-10-07T09:32:40 02:00</time>
      </trkpt>
      <trkpt lat="44.15467" lon="5.00425">
        <ele>284</ele>
        <time>2018-10-07T09:32:45 02:00</time>
      </trkpt>
      <trkpt lat="44.15447" lon="5.00455">
        <ele>283</ele>
        <time>2018-10-07T09:32:50 02:00</time>
      </trkpt>
      <trkpt lat="44.15435" lon="5.00477">
        <ele>284</ele>
        <time>2018-10-07T09:32:55 02:00</time>
      </trkpt>
      <trkpt lat="44.15423" lon="5.00501">
        <ele>284</ele>
        <time>2018-10-07T09:33:00 02:00</time>
      </trkpt>
      <trkpt lat="44.15405" lon="5.00526">
        <ele>283</ele>
        <time>2018-10-07T09:33:05 02:00</time>
      </trkpt>
      <trkpt lat="44.1539" lon="5.00572">
        <ele>285</ele>
        <time>2018-10-07T09:33:10 02:00</time>
      </trkpt>
      <trkpt lat="44.15379" lon="5.00592">
        <ele>297</ele>
        <time>2018-10-07T09:33:15 02:00</time>
      </trkpt>
      <trkpt lat="44.15375" lon="5.00598">
        <ele>298</ele>
        <time>2018-10-07T09:33:20 02:00</time>
      </trkpt>
      <trkpt lat="44.15364" lon="5.006">
        <ele>296</ele>
        <time>2018-10-07T09:33:25 02:00</time>
      </trkpt>
      <trkpt lat="44.15352" lon="5.00603">
        <ele>284</ele>
        <time>2018-10-07T09:33:30 02:00</time>
      </trkpt>
      <trkpt lat="44.15339" lon="5.006">
        <ele>285</ele>
        <time>2018-10-07T09:33:35 02:00</time>
      </trkpt>
      <trkpt lat="44.15323" lon="5.00585">
        <ele>285</ele>
        <time>2018-10-07T09:33:40 02:00</time>
      </trkpt>
      <trkpt lat="44.15308" lon="5.00578">
        <ele>288</ele>
        <time>2018-10-07T09:33:45 02:00</time>
      </trkpt>
      <trkpt lat="44.15294" lon="5.00589">
        <ele>291</ele>
        <time>2018-10-07T09:33:50 02:00</time>
      </trkpt>
      <trkpt lat="44.15259" lon="5.00625">
        <ele>307</ele>
        <time>2018-10-07T09:33:55 02:00</time>
      </trkpt>
      <trkpt lat="44.15245" lon="5.0064">
        <ele>311</ele>
        <time>2018-10-07T09:34:00 02:00</time>
      </trkpt>
      <trkpt lat="44.15219" lon="5.00682">
        <ele>321</ele>
        <time>2018-10-07T09:34:05 02:00</time>
      </trkpt>
      <trkpt lat="44.1519" lon="5.00741">
        <ele>326</ele>
        <time>2018-10-07T09:34:10 02:00</time>
      </trkpt>
      <trkpt lat="44.15182" lon="5.00757">
        <ele>326</ele>
        <time>2018-10-07T09:34:15 02:00</time>
      </trkpt>
      <trkpt lat="44.15167" lon="5.00771">
        <ele>321</ele>
        <time>2018-10-07T09:34:20 02:00</time>
      </trkpt>
      <trkpt lat="44.15158" lon="5.0079">
        <ele>332</ele>
        <time>2018-10-07T09:34:25 02:00</time>
      </trkpt>
      <trkpt lat="44.1515" lon="5.00806">
        <ele>327</ele>
        <time>2018-10-07T09:34:30 02:00</time>
      </trkpt>
      <trkpt lat="44.15141" lon="5.00805">
        <ele>327</ele>
        <time>2018-10-07T09:34:35 02:00</time>
      </trkpt>
      <trkpt lat="44.15138" lon="5.00797">
        <ele>336</ele>
        <time>2018-10-07T09:34:40 02:00</time>
      </trkpt>
      <trkpt lat="44.15138" lon="5.0078">
        <ele>335</ele>
        <time>2018-10-07T09:34:45 02:00</time>
      </trkpt>
      <trkpt lat="44.15145" lon="5.00754">
        <ele>325</ele>
        <time>2018-10-07T09:34:50 02:00</time>
      </trkpt>
      <trkpt lat="44.1514" lon="5.00746">
        <ele>327</ele>
        <time>2018-10-07T09:34:55 02:00</time>
      </trkpt>
      <trkpt lat="44.15133" lon="5.0075">
        <ele>328</ele>
        <time>2018-10-07T09:35:00 02:00</time>
      </trkpt>
      <trkpt lat="44.15129" lon="5.00761">
        <ele>329</ele>
        <time>2018-10-07T09:35:05 02:00</time>
      </trkpt>
      <trkpt lat="44.15117" lon="5.00771">
        <ele>339</ele>
        <time>2018-10-07T09:35:10 02:00</time>
      </trkpt>
      <trkpt lat="44.15097" lon="5.00774">
        <ele>343</ele>
        <time>2018-10-07T09:35:15 02:00</time>
      </trkpt>
      <trkpt lat="44.15066" lon="5.00772">
        <ele>346</ele>
        <time>2018-10-07T09:35:20 02:00</time>
      </trkpt>
      <trkpt lat="44.15054" lon="5.00776">
        <ele>346</ele>
        <time>2018-10-07T09:35:25 02:00</time>
      </trkpt>
      <trkpt lat="44.1504" lon="5.00765">
        <ele>345</ele>
        <time>2018-10-07T09:35:30 02:00</time>
      </trkpt>
      <trkpt lat="44.15028" lon="5.00752">
        <ele>340</ele>
        <time>2018-10-07T09:35:35 02:00</time>
      </trkpt>
      <trkpt lat="44.15011" lon="5.00737">
        <ele>339</ele>
        <time>2018-10-07T09:35:40 02:00</time>
      </trkpt>
      <trkpt lat="44.14996" lon="5.00719">
        <ele>340</ele>
        <time>2018-10-07T09:35:45 02:00</time>
      </trkpt>
      <trkpt lat="44.14977" lon="5.00712">
        <ele>337</ele>
        <time>2018-10-07T09:35:50 02:00</time>
      </trkpt>
      <trkpt lat="44.14949" lon="5.00675">
        <ele>330</ele>
        <time>2018-10-07T09:35:55 02:00</time>
      </trkpt>
      <trkpt lat="44.14935" lon="5.00684">
        <ele>328</ele>
        <time>2018-10-07T09:36:00 02:00</time>
      </trkpt>
      <trkpt lat="44.14916" lon="5.00708">
        <ele>325</ele>
        <time>2018-10-07T09:36:05 02:00</time>
      </trkpt>
      <trkpt lat="44.149" lon="5.00719">
        <ele>328</ele>
        <time>2018-10-07T09:36:10 02:00</time>
      </trkpt>
      <trkpt lat="44.14883" lon="5.00714">
        <ele>327</ele>
        <time>2018-10-07T09:36:15 02:00</time>
      </trkpt>
      <trkpt lat="44.14847" lon="5.007">
        <ele>319</ele>
        <time>2018-10-07T09:36:20 02:00</time>
      </trkpt>
      <trkpt lat="44.14822" lon="5.00689">
        <ele>314</ele>
        <time>2018-10-07T09:36:25 02:00</time>
      </trkpt>
      <trkpt lat="44.1481" lon="5.00683">
        <ele>310</ele>
        <time>2018-10-07T09:36:30 02:00</time>
      </trkpt>
      <trkpt lat="44.14799" lon="5.00671">
        <ele>307</ele>
        <time>2018-10-07T09:36:35 02:00</time>
      </trkpt>
      <trkpt lat="44.14794" lon="5.00653">
        <ele>306</ele>
        <time>2018-10-07T09:36:40 02:00</time>
      </trkpt>
      <trkpt lat="44.14788" lon="5.00644">
        <ele>306</ele>
        <time>2018-10-07T09:36:45 02:00</time>
      </trkpt>
      <trkpt lat="44.14776" lon="5.00637">
        <ele>308</ele>
        <time>2018-10-07T09:36:50 02:00</time>
      </trkpt>
      <trkpt lat="44.14757" lon="5.00633">
        <ele>311</ele>
        <time>2018-10-07T09:36:55 02:00</time>
      </trkpt>
      <trkpt lat="44.14738" lon="5.00635">
        <ele>307</ele>
        <time>2018-10-07T09:37:00 02:00</time>
      </trkpt>
      <trkpt lat="44.14714" lon="5.00646">
        <ele>316</ele>
        <time>2018-10-07T09:37:05 02:00</time>
      </trkpt>
      <trkpt lat="44.14697" lon="5.0066">
        <ele>310</ele>
        <time>2018-10-07T09:37:10 02:00</time>
      </trkpt>
      <trkpt lat="44.14684" lon="5.0066">
        <ele>310</ele>
        <time>2018-10-07T09:37:15 02:00</time>
      </trkpt>
      <trkpt lat="44.14675" lon="5.00669">
        <ele>314</ele>
        <time>2018-10-07T09:37:20 02:00</time>
      </trkpt>
      <trkpt lat="44.14664" lon="5.00701">
        <ele>314</ele>
        <time>2018-10-07T09:37:25 02:00</time>
      </trkpt>
      <trkpt lat="44.1466" lon="5.00725">
        <ele>315</ele>
        <time>2018-10-07T09:37:30 02:00</time>
      </trkpt>
      <trkpt lat="44.14654" lon="5.00756">
        <ele>319</ele>
        <time>2018-10-07T09:37:35 02:00</time>
      </trkpt>
      <trkpt lat="44.1464" lon="5.00783">
        <ele>321</ele>
        <time>2018-10-07T09:37:40 02:00</time>
      </trkpt>
      <trkpt lat="44.14619" lon="5.00807">
        <ele>315</ele>
        <time>2018-10-07T09:37:45 02:00</time>
      </trkpt>
      <trkpt lat="44.14611" lon="5.00825">
        <ele>314</ele>
        <time>2018-10-07T09:37:50 02:00</time>
      </trkpt>
      <trkpt lat="44.1461" lon="5.0083">
        <ele>315</ele>
        <time>2018-10-07T09:37:55 02:00</time>
      </trkpt>
      <trkpt lat="44.14622" lon="5.0088">
        <ele>322</ele>
        <time>2018-10-07T09:38:00 02:00</time>
      </trkpt>
      <trkpt lat="44.14626" lon="5.00906">
        <ele>324</ele>
        <time>2018-10-07T09:38:05 02:00</time>
      </trkpt>
      <trkpt lat="44.14626" lon="5.00934">
        <ele>324</ele>
        <time>2018-10-07T09:38:10 02:00</time>
      </trkpt>
      <trkpt lat="44.14614" lon="5.00956">
        <ele>324</ele>
        <time>2018-10-07T09:38:15 02:00</time>
      </trkpt>
      <trkpt lat="44.14603" lon="5.00969">
        <ele>320</ele>
        <time>2018-10-07T09:38:20 02:00</time>
      </trkpt>
      <trkpt lat="44.14593" lon="5.00995">
        <ele>324</ele>
        <time>2018-10-07T09:38:25 02:00</time>
      </trkpt>
      <trkpt lat="44.14557" lon="5.01059">
        <ele>321</ele>
        <time>2018-10-07T09:38:30 02:00</time>
      </trkpt>
      <trkpt lat="44.14531" lon="5.01087">
        <ele>317</ele>
        <time>2018-10-07T09:38:35 02:00</time>
      </trkpt>
      <trkpt lat="44.14506" lon="5.01103">
        <ele>314</ele>
        <time>2018-10-07T09:38:40 02:00</time>
      </trkpt>
      <trkpt lat="44.14499" lon="5.01107">
        <ele>313</ele>
        <time>2018-10-07T09:38:45 02:00</time>
      </trkpt>
      <trkpt lat="44.1449" lon="5.01125">
        <ele>311</ele>
        <time>2018-10-07T09:38:50 02:00</time>
      </trkpt>
      <trkpt lat="44.1448" lon="5.01133">
        <ele>310</ele>
        <time>2018-10-07T09:38:55 02:00</time>
      </trkpt>
      <trkpt lat="44.14446" lon="5.01141">
        <ele>314</ele>
        <time>2018-10-07T09:39:00 02:00</time>
      </trkpt>
      <trkpt lat="44.14431" lon="5.01138">
        <ele>310</ele>
        <time>2018-10-07T09:39:05 02:00</time>
      </trkpt>
      <trkpt lat="44.1442" lon="5.01137">
        <ele>310</ele>
        <time>2018-10-07T09:39:10 02:00</time>
      </trkpt>
      <trkpt lat="44.14405" lon="5.0114">
        <ele>308</ele>
        <time>2018-10-07T09:39:15 02:00</time>
      </trkpt>
      <trkpt lat="44.1437" lon="5.01156">
        <ele>305</ele>
        <time>2018-10-07T09:39:20 02:00</time>
      </trkpt>
      <trkpt lat="44.14363" lon="5.01156">
        <ele>304</ele>
        <time>2018-10-07T09:39:25 02:00</time>
      </trkpt>
      <trkpt lat="44.14355" lon="5.01154">
        <ele>303</ele>
        <time>2018-10-07T09:39:30 02:00</time>
      </trkpt>
      <trkpt lat="44.14344" lon="5.01139">
        <ele>301</ele>
        <time>2018-10-07T09:39:35 02:00</time>
      </trkpt>
      <trkpt lat="44.14342" lon="5.01128">
        <ele>300</ele>
        <time>2018-10-07T09:39:40 02:00</time>
      </trkpt>
      <trkpt lat="44.14347" lon="5.01113">
        <ele>303</ele>
        <time>2018-10-07T09:39:45 02:00</time>
      </trkpt>
      <trkpt lat="44.14362" lon="5.01098">
        <ele>304</ele>
        <time>2018-10-07T09:39:50 02:00</time>
      </trkpt>
      <trkpt lat="44.14364" lon="5.01087">
        <ele>303</ele>
        <time>2018-10-07T09:39:55 02:00</time>
      </trkpt>
      <trkpt lat="44.14345" lon="5.0107">
        <ele>297</ele>
        <time>2018-10-07T09:40:00 02:00</time>
      </trkpt>
      <trkpt lat="44.14336" lon="5.01068">
        <ele>295</ele>
        <time>2018-10-07T09:40:05 02:00</time>
      </trkpt>
      <trkpt lat="44.14317" lon="5.01083">
        <ele>293</ele>
        <time>2018-10-07T09:40:10 02:00</time>
      </trkpt>
      <trkpt lat="44.14307" lon="5.01095">
        <ele>292</ele>
        <time>2018-10-07T09:40:15 02:00</time>
      </trkpt>
      <trkpt lat="44.1429" lon="5.01126">
        <ele>292</ele>
        <time>2018-10-07T09:40:20 02:00</time>
      </trkpt>
      <trkpt lat="44.14278" lon="5.01137">
        <ele>292</ele>
        <time>2018-10-07T09:40:25 02:00</time>
      </trkpt>
      <trkpt lat="44.14246" lon="5.01152">
        <ele>288</ele>
        <time>2018-10-07T09:40:30 02:00</time>
      </trkpt>
      <trkpt lat="44.14209" lon="5.01181">
        <ele>284</ele>
        <time>2018-10-07T09:40:35 02:00</time>
      </trkpt>
      <trkpt lat="44.14191" lon="5.01184">
        <ele>281</ele>
        <time>2018-10-07T09:40:40 02:00</time>
      </trkpt>
      <trkpt lat="44.14177" lon="5.01178">
        <ele>278</ele>
        <time>2018-10-07T09:40:45 02:00</time>
      </trkpt>
      <trkpt lat="44.14166" lon="5.01168">
        <ele>277</ele>
        <time>2018-10-07T09:40:50 02:00</time>
      </trkpt>
      <trkpt lat="44.14163" lon="5.01149">
        <ele>274</ele>
        <time>2018-10-07T09:40:55 02:00</time>
      </trkpt>
      <trkpt lat="44.14159" lon="5.01108">
        <ele>267</ele>
        <time>2018-10-07T09:41:00 02:00</time>
      </trkpt>
      <trkpt lat="44.14176" lon="5.01098">
        <ele>264</ele>
        <time>2018-10-07T09:41:05 02:00</time>
      </trkpt>
      <trkpt lat="44.14176" lon="5.01086">
        <ele>263</ele>
        <time>2018-10-07T09:41:10 02:00</time>
      </trkpt>
      <trkpt lat="44.14154" lon="5.01063">
        <ele>261</ele>
        <time>2018-10-07T09:41:15 02:00</time>
      </trkpt>
      <trkpt lat="44.14135" lon="5.01055">
        <ele>256</ele>
        <time>2018-10-07T09:41:20 02:00</time>
      </trkpt>
      <trkpt lat="44.14114" lon="5.01062">
        <ele>255</ele>
        <time>2018-10-07T09:41:25 02:00</time>
      </trkpt>
      <trkpt lat="44.14091" lon="5.01071">
        <ele>253</ele>
        <time>2018-10-07T09:41:30 02:00</time>
      </trkpt>
      <trkpt lat="44.14061" lon="5.01074">
        <ele>246</ele>
        <time>2018-10-07T09:41:35 02:00</time>
      </trkpt>
      <trkpt lat="44.14032" lon="5.01083">
        <ele>244</ele>
        <time>2018-10-07T09:41:40 02:00</time>
      </trkpt>
      <trkpt lat="44.14021" lon="5.0108">
        <ele>242</ele>
        <time>2018-10-07T09:41:45 02:00</time>
      </trkpt>
      <trkpt lat="44.14017" lon="5.01069">
        <ele>237</ele>
        <time>2018-10-07T09:41:50 02:00</time>
      </trkpt>
      <trkpt lat="44.14025" lon="5.01058">
        <ele>235</ele>
        <time>2018-10-07T09:41:55 02:00</time>
      </trkpt>
      <trkpt lat="44.14042" lon="5.01048">
        <ele>239</ele>
        <time>2018-10-07T09:42:00 02:00</time>
      </trkpt>
      <trkpt lat="44.14048" lon="5.01042">
        <ele>234</ele>
        <time>2018-10-07T09:42:05 02:00</time>
      </trkpt>
      <trkpt lat="44.14061" lon="5.01028">
        <ele>233</ele>
        <time>2018-10-07T09:42:10 02:00</time>
      </trkpt>
      <trkpt lat="44.14071" lon="5.01018">
        <ele>238</ele>
        <time>2018-10-07T09:42:15 02:00</time>
      </trkpt>
      <trkpt lat="44.14089" lon="5.01001">
        <ele>238</ele>
        <time>2018-10-07T09:42:20 02:00</time>
      </trkpt>
      <trkpt lat="44.14088" lon="5.00989">
        <ele>233</ele>
        <time>2018-10-07T09:42:25 02:00</time>
      </trkpt>
      <trkpt lat="44.14078" lon="5.00981">
        <ele>235</ele>
        <time>2018-10-07T09:42:30 02:00</time>
      </trkpt>
      <trkpt lat="44.14051" lon="5.0097">
        <ele>230</ele>
        <time>2018-10-07T09:42:35 02:00</time>
      </trkpt>
      <trkpt lat="44.14029" lon="5.00939">
        <ele>224</ele>
        <time>2018-10-07T09:42:40 02:00</time>
      </trkpt>
      <trkpt lat="44.14013" lon="5.00919">
        <ele>219</ele>
        <time>2018-10-07T09:42:45 02:00</time>
      </trkpt>
      <trkpt lat="44.13995" lon="5.00914">
        <ele>214</ele>
        <time>2018-10-07T09:42:50 02:00</time>
      </trkpt>
      <trkpt lat="44.13985" lon="5.0091">
        <ele>213</ele>
        <time>2018-10-07T09:42:55 02:00</time>
      </trkpt>
      <trkpt lat="44.13972" lon="5.00897">
        <ele>210</ele>
        <time>2018-10-07T09:43:00 02:00</time>
      </trkpt>
      <trkpt lat="44.13965" lon="5.00886">
        <ele>208</ele>
        <time>2018-10-07T09:43:05 02:00</time>
      </trkpt>
      <trkpt lat="44.13946" lon="5.00872">
        <ele>205</ele>
        <time>2018-10-07T09:43:10 02:00</time>
      </trkpt>
      <trkpt lat="44.13935" lon="5.0085">
        <ele>204</ele>
        <time>2018-10-07T09:43:15 02:00</time>
      </trkpt>
      <trkpt lat="44.1393" lon="5.00834">
        <ele>202</ele>
        <time>2018-10-07T09:43:20 02:00</time>
      </trkpt>
      <trkpt lat="44.13919" lon="5.00825">
        <ele>200</ele>
        <time>2018-10-07T09:43:25 02:00</time>
      </trkpt>
      <trkpt lat="44.13892" lon="5.00791">
        <ele>195</ele>
        <time>2018-10-07T09:43:30 02:00</time>
      </trkpt>
      <trkpt lat="44.13878" lon="5.00777">
        <ele>194</ele>
        <time>2018-10-07T09:43:35 02:00</time>
      </trkpt>
      <trkpt lat="44.13868" lon="5.00772">
        <ele>193</ele>
        <time>2018-10-07T09:43:40 02:00</time>
      </trkpt>
      <trkpt lat="44.13859" lon="5.00774">
        <ele>195</ele>
        <time>2018-10-07T09:43:45 02:00</time>
      </trkpt>
      <trkpt lat="44.13844" lon="5.00786">
        <ele>195</ele>
        <time>2018-10-07T09:43:50 02:00</time>
      </trkpt>
      <trkpt lat="44.13811" lon="5.00814">
        <ele>193</ele>
        <time>2018-10-07T09:43:55 02:00</time>
      </trkpt>
      <trkpt lat="44.13799" lon="5.00818">
        <ele>193</ele>
        <time>2018-10-07T09:44:00 02:00</time>
      </trkpt>
      <trkpt lat="44.13778" lon="5.00819">
        <ele>192</ele>
        <time>2018-10-07T09:44:05 02:00</time>
      </trkpt>
      <trkpt lat="44.13766" lon="5.0082">
        <ele>191</ele>
        <time>2018-10-07T09:44:10 02:00</time>
      </trkpt>
      <trkpt lat="44.13743" lon="5.00809">
        <ele>190</ele>
        <time>2018-10-07T09:44:15 02:00</time>
      </trkpt>
      <trkpt lat="44.13734" lon="5.00795">
        <ele>189</ele>
        <time>2018-10-07T09:44:20 02:00</time>
      </trkpt>
      <trkpt lat="44.13729" lon="5.00775">
        <ele>190</ele>
        <time>2018-10-07T09:44:25 02:00</time>
      </trkpt>
      <trkpt lat="44.13706" lon="5.00736">
        <ele>188</ele>
        <time>2018-10-07T09:44:30 02:00</time>
      </trkpt>
      <trkpt lat="44.13699" lon="5.00723">
        <ele>186</ele>
        <time>2018-10-07T09:44:35 02:00</time>
      </trkpt>
      <trkpt lat="44.13687" lon="5.00721">
        <ele>181</ele>
        <time>2018-10-07T09:44:40 02:00</time>
      </trkpt>
      <trkpt lat="44.13674" lon="5.0073">
        <ele>181</ele>
        <time>2018-10-07T09:44:45 02:00</time>
      </trkpt>
      <trkpt lat="44.13662" lon="5.0074">
        <ele>181</ele>
        <time>2018-10-07T09:44:50 02:00</time>
      </trkpt>
      <trkpt lat="44.13654" lon="5.00742">
        <ele>180</ele>
        <time>2018-10-07T09:44:55 02:00</time>
      </trkpt>
      <trkpt lat="44.13647" lon="5.00739">
        <ele>180</ele>
        <time>2018-10-07T09:45:00 02:00</time>
      </trkpt>
      <trkpt lat="44.1364" lon="5.00721">
        <ele>183</ele>
        <time>2018-10-07T09:45:05 02:00</time>
      </trkpt>
      <trkpt lat="44.13615" lon="5.00727">
        <ele>181</ele>
        <time>2018-10-07T09:45:10 02:00</time>
      </trkpt>
      <trkpt lat="44.1362" lon="5.00645">
        <ele>178</ele>
        <time>2018-10-07T09:45:15 02:00</time>
      </trkpt>
      <trkpt lat="44.1362" lon="5.00603">
        <ele>179</ele>
        <time>2018-10-07T09:45:20 02:00</time>
      </trkpt>
      <trkpt lat="44.13599" lon="5.00537">
        <ele>161</ele>
        <time>2018-10-07T09:45:25 02:00</time>
      </trkpt>
      <trkpt lat="44.13584" lon="5.0048">
        <ele>154</ele>
        <time>2018-10-07T09:45:30 02:00</time>
      </trkpt>
      <trkpt lat="44.13574" lon="5.00445">
        <ele>152</ele>
        <time>2018-10-07T09:45:35 02:00</time>
      </trkpt>
      <trkpt lat="44.13572" lon="5.00421">
        <ele>150</ele>
        <time>2018-10-07T09:45:40 02:00</time>
      </trkpt>
      <trkpt lat="44.13578" lon="5.00388">
        <ele>154</ele>
        <time>2018-10-07T09:45:45 02:00</time>
      </trkpt>
      <trkpt lat="44.13598" lon="5.00374">
        <ele>157</ele>
        <time>2018-10-07T09:45:50 02:00</time>
      </trkpt>
      <trkpt lat="44.13633" lon="5.00385">
        <ele>159</ele>
        <time>2018-10-07T09:45:55 02:00</time>
      </trkpt>
      <trkpt lat="44.13661" lon="5.00399">
        <ele>160</ele>
        <time>2018-10-07T09:46:00 02:00</time>
      </trkpt>
      <trkpt lat="44.13686" lon="5.0039">
        <ele>164</ele>
        <time>2018-10-07T09:46:05 02:00</time>
      </trkpt>
      <trkpt lat="44.13712" lon="5.0037">
        <ele>169</ele>
        <time>2018-10-07T09:46:10 02:00</time>
      </trkpt>
      <trkpt lat="44.13719" lon="5.00346">
        <ele>170</ele>
        <time>2018-10-07T09:46:15 02:00</time>
      </trkpt>
      <trkpt lat="44.13724" lon="5.00297">
        <ele>168</ele>
        <time>2018-10-07T09:46:20 02:00</time>
      </trkpt>
      <trkpt lat="44.13748" lon="5.00155">
        <ele>156</ele>
        <time>2018-10-07T09:46:25 02:00</time>
      </trkpt>
      <trkpt lat="44.13764" lon="5.00077">
        <ele>151</ele>
        <time>2018-10-07T09:46:30 02:00</time>
      </trkpt>
      <trkpt lat="44.13775" lon="4.99983">
        <ele>143</ele>
        <time>2018-10-07T09:46:35 02:00</time>
      </trkpt>
      <trkpt lat="44.13777" lon="4.99949">
        <ele>142</ele>
        <time>2018-10-07T09:46:40 02:00</time>
      </trkpt>
      <trkpt lat="44.13812" lon="4.99828">
        <ele>138</ele>
        <time>2018-10-07T09:46:45 02:00</time>
      </trkpt>
      <trkpt lat="44.13792" lon="4.99835">
        <ele>137</ele>
        <time>2018-10-07T09:46:50 02:00</time>
      </trkpt>
      <trkpt lat="44.13765" lon="4.9986">
        <ele>137</ele>
        <time>2018-10-07T09:46:55 02:00</time>
      </trkpt>
      <trkpt lat="44.13653" lon="4.99964">
        <ele>137</ele>
        <time>2018-10-07T09:47:00 02:00</time>
      </trkpt>
      <trkpt lat="44.13641" lon="4.99969">
        <ele>137</ele>
        <time>2018-10-07T09:47:05 02:00</time>
      </trkpt>
      <trkpt lat="44.13629" lon="4.99967">
        <ele>137</ele>
        <time>2018-10-07T09:47:10 02:00</time>
      </trkpt>
      <trkpt lat="44.13621" lon="4.99958">
        <ele>136</ele>
        <time>2018-10-07T09:47:15 02:00</time>
      </trkpt>
      <trkpt lat="44.13616" lon="4.99948">
        <ele>136</ele>
        <time>2018-10-07T09:47:20 02:00</time>
      </trkpt>
      <trkpt lat="44.13608" lon="4.99947">
        <ele>135</ele>
        <time>2018-10-07T09:47:25 02:00</time>
      </trkpt>
      <trkpt lat="44.13594" lon="4.99955">
        <ele>136</ele>
        <time>2018-10-07T09:47:30 02:00</time>
      </trkpt>
      <trkpt lat="44.13477" lon="5.00041">
        <ele>140</ele>
        <time>2018-10-07T09:47:35 02:00</time>
      </trkpt>
      <trkpt lat="44.13459" lon="5.00057">
        <ele>143</ele>
        <time>2018-10-07T09:47:40 02:00</time>
      </trkpt>
      <trkpt lat="44.13448" lon="5.00056">
        <ele>144</ele>
        <time>2018-10-07T09:47:45 02:00</time>
      </trkpt>
      <trkpt lat="44.13433" lon="5.00051">
        <ele>145</ele>
        <time>2018-10-07T09:47:50 02:00</time>
      </trkpt>
      <trkpt lat="44.1338" lon="5.00107">
        <ele>141</ele>
        <time>2018-10-07T09:47:55 02:00</time>
      </trkpt>
      <trkpt lat="44.13354" lon="5.00136">
        <ele>142</ele>
        <time>2018-10-07T09:48:00 02:00</time>
      </trkpt>
      <trkpt lat="44.13296" lon="5.00167">
        <ele>138</ele>
        <time>2018-10-07T09:48:05 02:00</time>
      </trkpt>
      <trkpt lat="44.13276" lon="5.00182">
        <ele>136</ele>
        <time>2018-10-07T09:48:10 02:00</time>
      </trkpt>
      <trkpt lat="44.13243" lon="5.00193">
        <ele>134</ele>
        <time>2018-10-07T09:48:15 02:00</time>
      </trkpt>
      <trkpt lat="44.13222" lon="5.00201">
        <ele>132</ele>
        <time>2018-10-07T09:48:20 02:00</time>
      </trkpt>
      <trkpt lat="44.13194" lon="5.00215">
        <ele>128</ele>
        <time>2018-10-07T09:48:25 02:00</time>
      </trkpt>
      <trkpt lat="44.13179" lon="5.00219">
        <ele>130</ele>
        <time>2018-10-07T09:48:30 02:00</time>
      </trkpt>
    </trkseg>
  </trk>
</gpx>